createdAt,value
2019-03-02T00:02:14.115Z,53.83
2019-03-02T00:07:08.007Z,53.23
2019-03-02T00:12:00.569Z,66.07
2019-03-02T00:16:52.997Z,57.90
2019-03-02T00:21:45.578Z,60.40
2019-03-02T00:26:37.988Z,58.30
2019-03-02T00:31:33.251Z,66.10
2019-03-02T00:36:24.457Z,62.80
2019-03-02T00:41:16.853Z,67.17
2019-03-02T00:46:09.404Z,68.57
2019-03-02T01:20:28.755Z,59.53
2019-03-02T01:25:19.776Z,63.37
2019-03-02T01:30:19.701Z,70.70
2019-03-02T01:35:12.661Z,58.30
2019-03-02T01:40:08.443Z,61.93
2019-03-02T01:45:00.997Z,64.20
2019-03-02T01:49:53.112Z,62.57
2019-03-02T01:54:45.885Z,65.77
2019-03-02T01:59:38.675Z,67.03
2019-03-02T02:04:32.176Z,61.00
2019-03-02T02:09:25.303Z,65.93
2019-03-02T02:14:18.558Z,73.23
2019-03-02T02:19:12.141Z,62.43
2019-03-02T02:24:05.090Z,63.03
2019-03-02T02:28:57.305Z,65.47
2019-03-02T02:33:49.643Z,63.67
2019-03-02T02:38:42.302Z,65.13
2019-03-02T02:43:34.750Z,65.40
2019-03-02T02:48:31.188Z,64.30
2019-03-02T02:53:21.374Z,57.37
2019-03-02T02:58:17.518Z,66.37
2019-03-02T03:03:08.066Z,59.87
2019-03-02T03:08:00.494Z,61.33
2019-03-02T03:12:56.812Z,60.33
2019-03-02T03:17:47.318Z,59.40
2019-03-02T03:22:41.024Z,56.77
2019-03-02T03:27:34.053Z,60.23
2019-03-02T03:32:26.655Z,56.17
2019-03-02T03:37:18.987Z,57.97
2019-03-02T03:42:11.710Z,62.87
2019-03-02T03:47:04.497Z,59.77
2019-03-02T03:51:56.944Z,59.47
2019-03-02T03:56:49.403Z,57.90
2019-03-02T04:01:42.143Z,54.00
2019-03-02T04:06:35.142Z,54.07
2019-03-02T04:11:27.433Z,57.90
2019-03-02T04:16:22.512Z,58.60
2019-03-02T04:21:14.392Z,57.27
2019-03-02T04:26:06.594Z,58.13
2019-03-02T04:30:58.950Z,59.60
2019-03-02T04:35:51.313Z,58.63
2019-03-02T04:40:44.141Z,56.33
2019-03-02T04:45:39.697Z,56.87
2019-03-02T04:50:30.902Z,58.57
2019-03-02T04:55:23.594Z,57.07
2019-03-02T05:00:17.270Z,61.20
2019-03-02T05:05:09.965Z,56.43
2019-03-02T05:10:02.223Z,56.03
2019-03-02T05:14:54.600Z,56.93
2019-03-02T05:19:46.685Z,60.93
2019-03-02T05:24:40.534Z,64.67
2019-03-02T05:29:33.361Z,65.17
2019-03-02T05:34:26.103Z,59.23
2019-03-02T05:39:18.609Z,57.43
2019-03-02T05:44:11.398Z,59.87
2019-03-02T05:49:03.697Z,60.17
2019-03-02T05:53:56.669Z,59.83
2019-03-02T05:58:51.115Z,54.37
2019-03-02T06:03:45.977Z,54.87
2019-03-02T06:08:38.228Z,56.53
2019-03-02T06:13:30.982Z,63.67
2019-03-02T06:18:23.596Z,56.40
2019-03-02T06:23:16.069Z,61.50
2019-03-02T06:28:08.797Z,58.27
2019-03-02T06:33:01.541Z,60.83
2019-03-02T06:37:56.498Z,64.97
2019-03-02T06:42:47.958Z,64.53
2019-03-02T06:47:40.728Z,64.97
2019-03-02T06:52:33.321Z,60.87
2019-03-02T06:57:25.596Z,65.17
2019-03-02T07:02:17.865Z,63.73
2019-03-02T07:07:10.351Z,60.90
2019-03-02T07:12:05.986Z,58.70
2019-03-02T07:16:57.183Z,60.92
2019-03-02T07:21:49.864Z,59.60
2019-03-02T07:26:42.879Z,63.67
2019-03-02T07:31:37.489Z,61.23
2019-03-02T07:36:33.963Z,65.33
2019-03-02T07:41:23.434Z,63.20
2019-03-02T07:46:15.789Z,57.30
2019-03-02T07:51:08.468Z,55.52
2019-03-02T07:56:00.953Z,57.27
2019-03-02T08:00:53.625Z,57.40
2019-03-02T08:05:46.965Z,50.30
2019-03-02T08:10:40.049Z,48.85
2019-03-02T08:15:33.432Z,50.28
2019-03-02T08:20:26.201Z,44.27
2019-03-02T08:25:18.787Z,40.05
2019-03-02T08:30:14.689Z,36.17
2019-03-02T08:35:09.488Z,35.08
2019-03-02T08:40:02.376Z,39.55
2019-03-02T08:44:55.140Z,42.15
2019-03-02T08:49:47.586Z,38.90
2019-03-02T08:54:40.368Z,37.40
2019-03-02T08:59:34.703Z,33.18
2019-03-02T09:04:26.974Z,33.73
2019-03-02T09:09:19.914Z,35.38
2019-03-02T09:14:12.682Z,36.53
2019-03-02T09:19:06.093Z,34.40
2019-03-02T09:23:58.625Z,36.20
2019-03-02T09:28:51.938Z,47.13
2019-03-02T09:33:45.486Z,36.03
2019-03-02T09:38:38.273Z,24.65
2019-03-02T09:43:31.970Z,22.87
2019-03-02T09:48:25.462Z,21.10
2019-03-02T09:53:17.953Z,21.02
2019-03-02T09:58:10.929Z,19.52
2019-03-02T10:03:03.193Z,21.50
2019-03-02T10:07:55.957Z,21.23
2019-03-02T10:12:51.699Z,20.60
2019-03-02T10:17:42.500Z,18.87
2019-03-02T10:22:35.401Z,19.98
2019-03-02T10:27:27.824Z,14.90
2019-03-02T10:32:20.110Z,16.80
2019-03-02T10:37:12.516Z,17.07
2019-03-02T10:42:05.199Z,13.85
2019-03-02T10:46:57.667Z,11.28
2019-03-02T10:51:50.550Z,16.87
2019-03-02T10:56:43.069Z,12.03
2019-03-02T11:01:35.585Z,13.83
2019-03-02T11:06:33.105Z,12.55
2019-03-02T11:11:43.913Z,14.70
2019-03-02T11:16:41.119Z,14.20
2019-03-02T11:21:35.553Z,19.32
2019-03-02T11:26:33.041Z,14.40
2019-03-02T11:31:36.039Z,15.55
2019-03-02T11:36:42.097Z,11.28
2019-03-02T11:41:39.243Z,14.83
2019-03-02T11:46:33.341Z,22.65
2019-03-02T11:51:30.447Z,13.18
2019-03-02T11:56:27.201Z,12.50
2019-03-02T12:01:36.738Z,14.78
2019-03-02T12:06:41.010Z,21.80
2019-03-02T12:11:35.413Z,20.20
2019-03-02T12:16:32.341Z,21.15
2019-03-02T12:21:26.595Z,27.58
2019-03-02T12:26:42.718Z,17.07
2019-03-02T12:31:40.617Z,13.53
2019-03-02T12:36:53.189Z,14.35
2019-03-02T12:41:52.680Z,24.85
2019-03-02T12:47:05.246Z,26.33
2019-03-02T12:51:59.286Z,17.37
2019-03-02T12:56:53.408Z,14.25
2019-03-02T13:01:59.899Z,12.25
2019-03-02T13:07:13.980Z,9.83
2019-03-02T13:12:23.842Z,10.65
2019-03-02T13:17:17.926Z,10.40
2019-03-02T13:22:18.331Z,15.50
2019-03-02T13:27:28.677Z,12.90
2019-03-02T13:32:25.693Z,17.07
2019-03-02T13:37:20.387Z,10.32
2019-03-02T13:42:21.641Z,11.93
2019-03-02T13:47:33.673Z,15.18
2019-03-02T13:52:30.812Z,13.62
2019-03-02T13:57:24.724Z,10.32
2019-03-02T14:02:38.196Z,9.48
2019-03-02T14:07:36.753Z,12.58
2019-03-02T14:12:46.284Z,6.60
2019-03-02T14:17:40.662Z,12.45
2019-03-02T14:22:49.037Z,9.98
2019-03-02T14:27:45.582Z,7.55
2019-03-02T14:32:39.825Z,6.75
2019-03-02T14:37:44.268Z,5.30
2019-03-02T14:42:39.853Z,7.08
2019-03-02T14:47:36.609Z,7.42
2019-03-02T14:52:35.722Z,8.23
2019-03-02T14:57:29.867Z,6.80
2019-03-02T15:02:32.697Z,6.50
2019-03-02T15:07:29.557Z,8.30
2019-03-02T15:12:31.944Z,5.22
2019-03-02T15:17:27.851Z,6.55
2019-03-02T15:22:25.364Z,6.08
2019-03-02T15:27:20.192Z,7.95
2019-03-02T15:32:23.725Z,10.95
2019-03-02T15:37:29.784Z,12.03
2019-03-02T15:42:26.460Z,9.58
2019-03-02T15:47:20.800Z,6.72
2019-03-02T15:52:17.789Z,4.85
2019-03-02T15:57:11.801Z,2.80
2019-03-02T16:02:06.154Z,3.77
2019-03-02T16:07:02.146Z,6.33
2019-03-02T16:11:56.156Z,6.50
2019-03-02T16:17:03.623Z,6.22
2019-03-02T16:21:58.604Z,3.83
2019-03-02T16:27:08.633Z,5.92
2019-03-02T16:32:05.573Z,5.08
2019-03-02T16:37:02.816Z,10.45
2019-03-02T16:42:03.113Z,6.95
2019-03-02T16:47:06.183Z,13.03
2019-03-02T16:52:06.300Z,7.00
2019-03-02T16:57:04.516Z,5.58
2019-03-02T17:02:01.401Z,5.92
2019-03-02T17:07:11.348Z,5.08
2019-03-02T17:12:12.198Z,5.75
2019-03-02T17:17:20.266Z,4.37
2019-03-02T17:22:17.254Z,4.15
2019-03-02T17:27:21.220Z,4.17
2019-03-02T17:32:34.825Z,3.60
2019-03-02T17:37:40.973Z,5.20
2019-03-02T17:42:51.518Z,8.73
2019-03-02T17:47:45.936Z,13.08
2019-03-02T17:52:55.274Z,16.50
2019-03-02T17:57:50.279Z,16.07
2019-03-02T18:02:53.150Z,19.15
2019-03-02T18:08:12.240Z,8.98
2019-03-02T18:13:06.235Z,8.10
2019-03-02T18:18:02.000Z,7.87
2019-03-02T18:22:54.441Z,8.10
2019-03-02T18:27:47.873Z,6.87
2019-03-02T18:33:07.687Z,7.87
2019-03-02T18:37:59.847Z,7.78
2019-03-02T18:42:52.239Z,10.68
2019-03-02T18:47:45.230Z,10.18
2019-03-02T18:52:48.454Z,8.30
2019-03-02T18:57:40.853Z,9.33
2019-03-02T19:02:33.881Z,8.08
2019-03-02T19:07:26.873Z,9.00
2019-03-02T19:12:19.477Z,10.10
2019-03-02T19:17:11.877Z,7.95
2019-03-02T19:22:04.729Z,8.05
2019-03-02T19:26:57.300Z,10.38
2019-03-02T19:31:49.935Z,10.35
2019-03-02T19:36:43.041Z,8.90
2019-03-02T19:41:35.729Z,9.08
2019-03-02T19:46:27.926Z,8.93
2019-03-02T19:51:20.335Z,7.72
2019-03-02T19:56:12.963Z,8.48
2019-03-02T20:01:06.044Z,14.33
2019-03-02T20:05:57.837Z,11.97
2019-03-02T20:10:50.261Z,9.05
2019-03-02T20:15:42.720Z,10.55
2019-03-02T20:20:35.255Z,15.13
2019-03-02T20:25:28.036Z,12.73
2019-03-02T20:30:23.133Z,14.75
2019-03-02T20:35:32.197Z,9.63
2019-03-02T20:40:26.256Z,10.32
2019-03-02T20:45:19.875Z,14.13
2019-03-02T20:50:19.146Z,9.15
2019-03-02T20:55:13.662Z,11.85
2019-03-02T21:00:11.777Z,14.47
2019-03-02T21:05:07.785Z,14.38
2019-03-02T21:10:00.786Z,11.45
2019-03-02T21:14:53.016Z,11.43
2019-03-02T21:19:45.753Z,12.47
2019-03-02T21:24:38.538Z,11.25
2019-03-02T21:29:31.268Z,14.23
2019-03-02T21:34:23.533Z,14.50
2019-03-02T21:39:16.557Z,9.78
2019-03-02T21:44:09.344Z,13.98
2019-03-02T21:49:07.565Z,11.70
2019-03-02T21:54:00.180Z,16.27
2019-03-02T21:58:52.851Z,25.50
2019-03-02T22:03:45.604Z,22.20
2019-03-02T22:08:37.961Z,21.97
2019-03-02T22:13:30.269Z,24.82
2019-03-02T22:18:22.955Z,19.80
2019-03-02T22:23:15.553Z,14.18
2019-03-02T22:28:08.206Z,14.60
2019-03-02T22:33:00.873Z,8.48
2019-03-02T22:37:53.245Z,12.70
2019-03-02T22:42:45.837Z,8.85
2019-03-02T22:47:38.501Z,11.50
2019-03-02T22:52:31.284Z,8.20
2019-03-02T22:57:23.818Z,12.68
2019-03-02T23:02:21.087Z,12.50
2019-03-02T23:07:13.533Z,10.68
2019-03-02T23:12:06.323Z,8.55
2019-03-02T23:16:58.835Z,8.70
2019-03-02T23:21:51.374Z,9.58
2019-03-02T23:26:43.777Z,12.90
2019-03-02T23:31:36.340Z,9.85
2019-03-02T23:36:29.072Z,9.50
2019-03-02T23:41:21.635Z,11.80
2019-03-02T23:46:14.348Z,12.58
2019-03-02T23:51:06.825Z,17.82
2019-03-02T23:55:59.300Z,17.45
